createdAt,value
2022-10-13T00:00:44.195Z,1013.24
2022-10-13T00:01:44.127Z,1013.21
2022-10-13T00:02:44.125Z,1013.18
2022-10-13T00:03:44.104Z,1013.24
2022-10-13T00:04:44.112Z,1013.18
2022-10-13T00:05:44.079Z,1013.17
2022-10-13T00:06:44.064Z,1013.19
2022-10-13T00:07:44.081Z,1013.11
2022-10-13T00:08:44.053Z,1013.19
2022-10-13T00:09:44.035Z,1013.19
2022-10-13T00:10:44.023Z,1013.22
2022-10-13T00:11:44.010Z,1013.15
2022-10-13T00:12:44.003Z,1013.12
2022-10-13T00:13:44.056Z,1013.17
2022-10-13T00:14:43.990Z,1013.18
2022-10-13T00:15:43.968Z,1013.16
2022-10-13T00:16:43.975Z,1013.11
2022-10-13T00:17:43.950Z,1013.15
2022-10-13T00:18:43.947Z,1013.19
2022-10-13T00:19:43.924Z,1013.14
2022-10-13T00:20:43.913Z,1013.10
2022-10-13T00:21:43.902Z,1013.12
2022-10-13T00:22:43.888Z,1013.12
2022-10-13T00:23:43.887Z,1013.07
2022-10-13T00:24:43.869Z,1013.09
2022-10-13T00:25:43.861Z,1013.07
2022-10-13T00:26:43.866Z,1013.04
2022-10-13T00:27:43.829Z,1013.12
2022-10-13T00:28:46.344Z,1013.12
2022-10-13T00:29:44.828Z,1013.12
2022-10-13T00:30:43.807Z,1013.08
2022-10-13T00:31:43.804Z,1013.14
2022-10-13T00:32:43.796Z,1013.08
2022-10-13T00:33:43.775Z,1013.14
2022-10-13T00:34:43.760Z,1013.08
2022-10-13T00:35:43.745Z,1013.09
2022-10-13T00:36:43.759Z,1013.10
2022-10-13T00:37:43.725Z,1013.07
2022-10-13T00:38:43.731Z,1012.99
2022-10-13T00:39:43.721Z,1013.00
2022-10-13T00:40:43.690Z,1013.03
2022-10-13T00:41:43.686Z,1013.01
2022-10-13T00:42:43.671Z,1013.00
2022-10-13T00:43:43.682Z,1012.96
2022-10-13T00:44:43.647Z,1013.03
2022-10-13T00:45:43.641Z,1012.94
2022-10-13T00:46:43.626Z,1012.93
2022-10-13T00:47:43.632Z,1012.94
2022-10-13T00:48:43.744Z,1012.96
2022-10-13T00:49:43.602Z,1012.94
2022-10-13T00:50:43.578Z,1012.94
2022-10-13T00:51:43.566Z,1012.93
2022-10-13T00:52:43.557Z,1012.91
2022-10-13T00:53:43.576Z,1012.91
2022-10-13T00:54:43.544Z,1012.88
2022-10-13T00:55:43.523Z,1012.94
2022-10-13T00:56:43.516Z,1012.85
2022-10-13T00:57:43.513Z,1012.93
2022-10-13T00:58:43.505Z,1012.89
2022-10-13T00:59:43.479Z,1012.93
2022-10-13T01:00:43.589Z,1012.87
2022-10-13T01:01:43.470Z,1012.88
2022-10-13T01:02:43.447Z,1012.89
2022-10-13T01:03:43.438Z,1012.87
2022-10-13T01:04:43.445Z,1012.88
2022-10-13T01:05:43.412Z,1012.79
2022-10-13T01:06:43.403Z,1012.85
2022-10-13T01:07:43.392Z,1012.86
2022-10-13T01:08:43.400Z,1012.83
2022-10-13T01:09:43.360Z,1012.80
2022-10-13T01:10:43.367Z,1012.74
2022-10-13T01:11:43.355Z,1012.75
2022-10-13T01:12:43.337Z,1012.75
2022-10-13T01:13:43.341Z,1012.73
2022-10-13T01:14:43.322Z,1012.67
2022-10-13T01:15:43.304Z,1012.68
2022-10-13T01:16:43.313Z,1012.64
2022-10-13T01:17:43.296Z,1012.68
2022-10-13T01:18:43.293Z,1012.66
2022-10-13T01:19:43.275Z,1012.62
2022-10-13T01:20:43.266Z,1012.57
2022-10-13T01:21:43.246Z,1012.62
2022-10-13T01:22:43.223Z,1012.59
2022-10-13T01:23:43.211Z,1012.62
2022-10-13T01:24:43.237Z,1012.60
2022-10-13T01:25:43.190Z,1012.61
2022-10-13T01:26:43.183Z,1012.65
2022-10-13T01:27:43.173Z,1012.62
2022-10-13T01:28:43.225Z,1012.62
2022-10-13T01:29:43.185Z,1012.61
2022-10-13T01:30:43.136Z,1012.61
2022-10-13T01:31:43.123Z,1012.60
2022-10-13T01:32:43.137Z,1012.60
2022-10-13T01:33:43.124Z,1012.60
2022-10-13T01:34:43.104Z,1012.69
2022-10-13T01:35:43.081Z,1012.62
2022-10-13T01:36:43.089Z,1012.61
2022-10-13T01:37:43.056Z,1012.59
2022-10-13T01:38:43.066Z,1012.66
2022-10-13T01:39:43.047Z,1012.61
2022-10-13T01:40:43.033Z,1012.59
2022-10-13T01:41:43.015Z,1012.58
2022-10-13T01:42:43.002Z,1012.58
2022-10-13T01:43:42.997Z,1012.55
2022-10-13T01:44:43.013Z,1012.48
2022-10-13T01:45:42.967Z,1012.55
2022-10-13T01:46:42.964Z,1012.50
2022-10-13T01:47:42.983Z,1012.56
2022-10-13T01:48:42.945Z,1012.45
2022-10-13T01:49:42.931Z,1012.49
2022-10-13T01:50:42.920Z,1012.43
2022-10-13T01:51:42.908Z,1012.44
2022-10-13T01:52:42.909Z,1012.40
2022-10-13T01:53:42.883Z,1012.37
2022-10-13T01:54:42.882Z,1012.36
2022-10-13T01:55:42.883Z,1012.38
2022-10-13T01:56:42.867Z,1012.41
2022-10-13T01:57:42.842Z,1012.33
2022-10-13T01:58:42.829Z,1012.38
2022-10-13T01:59:42.836Z,1012.40
2022-10-13T02:00:42.855Z,1012.36
2022-10-13T02:01:42.788Z,1012.39
2022-10-13T02:02:42.794Z,1012.42
2022-10-13T02:03:42.780Z,1012.46
2022-10-13T02:04:42.767Z,1012.44
2022-10-13T02:05:42.770Z,1012.44
2022-10-13T02:06:42.740Z,1012.51
2022-10-13T02:07:42.733Z,1012.48
2022-10-13T02:08:42.741Z,1012.51
2022-10-13T02:09:42.719Z,1012.47
2022-10-13T02:10:42.691Z,1012.53
2022-10-13T02:11:42.694Z,1012.43
2022-10-13T02:12:42.673Z,1012.44
2022-10-13T02:13:42.658Z,1012.41
2022-10-13T02:14:42.696Z,1012.40
2022-10-13T02:15:42.661Z,1012.31
2022-10-13T02:16:42.627Z,1012.42
2022-10-13T02:17:42.609Z,1012.38
2022-10-13T02:18:42.600Z,1012.37
2022-10-13T02:19:42.610Z,1012.34
2022-10-13T02:20:42.616Z,1012.33
2022-10-13T02:21:42.570Z,1012.40
2022-10-13T02:22:42.556Z,1012.35
2022-10-13T02:23:42.566Z,1012.38
2022-10-13T02:24:42.567Z,1012.38
2022-10-13T02:25:42.522Z,1012.33
2022-10-13T02:26:42.544Z,1012.32
2022-10-13T02:27:42.508Z,1012.39
2022-10-13T02:28:42.559Z,1012.36
2022-10-13T02:29:42.480Z,1012.34
2022-10-13T02:30:42.478Z,1012.32
2022-10-13T02:31:42.481Z,1012.34
2022-10-13T02:32:42.447Z,1012.30
2022-10-13T02:33:42.475Z,1012.32
2022-10-13T02:34:42.428Z,1012.28
2022-10-13T02:35:42.424Z,1012.35
2022-10-13T02:36:42.406Z,1012.36
2022-10-13T02:37:42.408Z,1012.30
2022-10-13T02:38:42.385Z,1012.36
2022-10-13T02:39:42.403Z,1012.29
2022-10-13T02:40:42.382Z,1012.31
2022-10-13T02:41:42.361Z,1012.35
2022-10-13T02:42:42.354Z,1012.31
2022-10-13T02:43:42.345Z,1012.31
2022-10-13T02:44:42.319Z,1012.37
2022-10-13T02:45:42.300Z,1012.31
2022-10-13T02:46:42.303Z,1012.28
2022-10-13T02:47:42.291Z,1012.29
2022-10-13T02:48:42.272Z,1012.34
2022-10-13T02:49:42.287Z,1012.26
2022-10-13T02:50:42.249Z,1012.32
2022-10-13T02:51:42.238Z,1012.25
2022-10-13T02:52:42.249Z,1012.23
2022-10-13T02:53:42.211Z,1012.26
2022-10-13T02:54:42.213Z,1012.21
2022-10-13T02:55:42.211Z,1012.22
2022-10-13T02:56:42.205Z,1012.23
2022-10-13T02:57:42.168Z,1012.22
2022-10-13T02:58:42.181Z,1012.30
2022-10-13T02:59:42.149Z,1012.23
2022-10-13T03:00:42.338Z,1012.25
2022-10-13T03:01:42.188Z,1012.30
2022-10-13T03:02:42.131Z,1012.25
2022-10-13T03:03:42.113Z,1012.22
2022-10-13T03:04:42.113Z,1012.29
2022-10-13T03:05:42.084Z,1012.27
2022-10-13T03:06:42.110Z,1012.20
2022-10-13T03:07:42.058Z,1012.23
2022-10-13T03:08:42.062Z,1012.24
2022-10-13T03:09:42.038Z,1012.22
2022-10-13T03:10:42.033Z,1012.21
2022-10-13T03:11:42.017Z,1012.18
2022-10-13T03:12:42.119Z,1012.20
2022-10-13T03:13:42.023Z,1012.23
2022-10-13T03:14:41.991Z,1012.15
2022-10-13T03:15:41.968Z,1012.11
2022-10-13T03:16:41.977Z,1012.09
2022-10-13T03:17:41.947Z,1012.12
2022-10-13T03:18:41.948Z,1012.10
2022-10-13T03:19:41.941Z,1012.15
2022-10-13T03:20:41.916Z,1012.10
2022-10-13T03:21:41.910Z,1012.05
2022-10-13T03:22:44.863Z,1011.98
2022-10-13T03:23:42.911Z,1012.08
2022-10-13T03:24:41.871Z,1012.10
2022-10-13T03:25:41.862Z,1012.07
2022-10-13T03:26:41.852Z,1012.07
2022-10-13T03:27:41.846Z,1012.11
2022-10-13T03:28:41.979Z,1012.02
2022-10-13T03:29:41.823Z,1012.06
2022-10-13T03:30:41.832Z,1012.01
2022-10-13T03:31:41.821Z,1012.00
2022-10-13T03:32:41.782Z,1012.02
2022-10-13T03:33:41.781Z,1011.98
2022-10-13T03:34:41.762Z,1011.92
2022-10-13T03:35:41.762Z,1011.92
2022-10-13T03:36:41.737Z,1011.96
2022-10-13T03:37:41.722Z,1012.01
2022-10-13T03:38:41.734Z,1011.96
2022-10-13T03:39:41.711Z,1011.99
2022-10-13T03:40:41.729Z,1011.94
2022-10-13T03:41:41.698Z,1012.02
2022-10-13T03:42:41.672Z,1011.98
2022-10-13T03:43:41.672Z,1011.96
2022-10-13T03:44:41.692Z,1011.94
2022-10-13T03:45:41.638Z,1011.91
2022-10-13T03:46:41.641Z,1011.94
2022-10-13T03:47:41.633Z,1011.90
2022-10-13T03:48:41.621Z,1011.93
2022-10-13T03:49:41.595Z,1011.92
2022-10-13T03:50:41.596Z,1011.88
2022-10-13T03:51:41.589Z,1011.81
2022-10-13T03:52:41.565Z,1011.81
2022-10-13T03:53:41.553Z,1011.79
2022-10-13T03:54:41.541Z,1011.80
2022-10-13T03:55:41.547Z,1011.74
2022-10-13T03:56:41.515Z,1011.77
2022-10-13T03:57:41.497Z,1011.74
2022-10-13T03:58:41.491Z,1011.73
2022-10-13T03:59:41.475Z,1011.71
2022-10-13T04:00:41.593Z,1011.70
2022-10-13T04:01:41.515Z,1011.75
2022-10-13T04:02:41.461Z,1011.77
2022-10-13T04:03:41.433Z,1011.73
2022-10-13T04:04:41.426Z,1011.71
2022-10-13T04:05:41.432Z,1011.73
2022-10-13T04:06:41.415Z,1011.75
2022-10-13T04:07:41.395Z,1011.71
2022-10-13T04:08:41.388Z,1011.74
2022-10-13T04:09:41.385Z,1011.77
2022-10-13T04:10:41.370Z,1011.79
2022-10-13T04:11:41.360Z,1011.78
2022-10-13T04:12:41.336Z,1011.71
2022-10-13T04:13:41.346Z,1011.76
2022-10-13T04:14:41.309Z,1011.73
2022-10-13T04:15:41.322Z,1011.76
2022-10-13T04:16:41.394Z,1011.73
2022-10-13T04:17:41.285Z,1011.72
2022-10-13T04:18:44.625Z,1011.66
2022-10-13T04:19:41.268Z,1011.69
2022-10-13T04:20:41.250Z,1011.65
2022-10-13T04:21:41.254Z,1011.68
2022-10-13T04:22:41.228Z,1011.69
2022-10-13T04:23:41.220Z,1011.63
2022-10-13T04:24:41.198Z,1011.66
2022-10-13T04:25:41.192Z,1011.69
2022-10-13T04:26:41.193Z,1011.64
2022-10-13T04:27:41.191Z,1011.62
2022-10-13T04:28:41.211Z,1011.60
2022-10-13T04:29:41.145Z,1011.59
2022-10-13T04:30:43.709Z,1011.53
2022-10-13T04:31:42.147Z,1011.50
2022-10-13T04:32:41.136Z,1011.52
2022-10-13T04:33:41.111Z,1011.56
2022-10-13T04:34:41.086Z,1011.55
2022-10-13T04:35:41.080Z,1011.56
2022-10-13T04:36:41.083Z,1011.52
2022-10-13T04:37:44.972Z,1011.56
2022-10-13T04:38:41.059Z,1011.54
2022-10-13T04:39:41.040Z,1011.53
2022-10-13T04:40:41.027Z,1011.56
2022-10-13T04:41:41.043Z,1011.50
2022-10-13T04:42:41.000Z,1011.52
2022-10-13T04:43:41.014Z,1011.47
2022-10-13T04:44:40.992Z,1011.48
2022-10-13T04:45:40.963Z,1011.48
2022-10-13T04:46:40.971Z,1011.46
2022-10-13T04:47:40.961Z,1011.42
2022-10-13T04:48:40.957Z,1011.49
2022-10-13T04:49:40.925Z,1011.48
2022-10-13T04:50:40.940Z,1011.46
2022-10-13T04:51:40.907Z,1011.42
2022-10-13T04:52:40.895Z,1011.31
2022-10-13T04:53:40.892Z,1011.26
2022-10-13T04:54:40.882Z,1011.22
2022-10-13T04:55:40.872Z,1011.22
2022-10-13T04:56:40.837Z,1011.28
2022-10-13T04:57:40.852Z,1011.26
2022-10-13T04:58:40.844Z,1011.38
2022-10-13T04:59:40.806Z,1011.43
2022-10-13T05:00:40.859Z,1011.35
2022-10-13T05:01:40.794Z,1011.33
2022-10-13T05:02:40.778Z,1011.37
2022-10-13T05:03:40.774Z,1011.37
2022-10-13T05:04:40.779Z,1011.37
2022-10-13T05:05:40.747Z,1011.30
2022-10-13T05:06:58.988Z,1011.33
2022-10-13T05:07:41.718Z,1011.29
2022-10-13T05:08:40.718Z,1011.32
2022-10-13T05:09:40.696Z,1011.33
2022-10-13T05:10:40.700Z,1011.21
2022-10-13T05:11:40.685Z,1011.28
2022-10-13T05:12:40.677Z,1011.30
2022-10-13T05:13:40.681Z,1011.30
2022-10-13T05:14:40.642Z,1011.31
2022-10-13T05:15:40.629Z,1011.36
2022-10-13T05:16:40.627Z,1011.34
2022-10-13T05:17:40.608Z,1011.37
2022-10-13T05:18:40.618Z,1011.26
2022-10-13T05:19:40.592Z,1011.27
2022-10-13T05:20:40.596Z,1011.20
2022-10-13T05:21:40.563Z,1011.24
2022-10-13T05:22:40.568Z,1011.27
2022-10-13T05:23:40.608Z,1011.26
2022-10-13T05:24:40.550Z,1011.13
2022-10-13T05:25:40.525Z,1011.09
2022-10-13T05:26:40.505Z,1011.15
2022-10-13T05:27:40.492Z,1011.17
2022-10-13T05:28:40.578Z,1011.19
2022-10-13T05:29:40.491Z,1011.22
2022-10-13T05:30:40.460Z,1011.20
2022-10-13T05:31:40.452Z,1011.14
2022-10-13T05:32:40.442Z,1011.21
2022-10-13T05:33:40.428Z,1011.22
2022-10-13T05:34:40.427Z,1011.11
2022-10-13T05:35:40.409Z,1011.03
2022-10-13T05:36:40.410Z,1010.97
2022-10-13T05:37:40.383Z,1011.04
2022-10-13T05:38:40.385Z,1011.03
2022-10-13T05:39:40.372Z,1011.09
2022-10-13T05:40:40.350Z,1011.09
2022-10-13T05:41:40.372Z,1010.98
2022-10-13T05:42:40.360Z,1011.00
2022-10-13T05:43:40.320Z,1011.07
2022-10-13T05:44:40.320Z,1011.12
2022-10-13T05:45:40.328Z,1011.10
2022-10-13T05:46:40.289Z,1011.11
2022-10-13T05:47:40.298Z,1011.21
2022-10-13T05:48:40.256Z,1011.17
2022-10-13T05:49:40.250Z,1011.17
2022-10-13T05:50:40.289Z,1011.23
2022-10-13T05:51:40.237Z,1011.14
2022-10-13T05:52:40.252Z,1011.18
2022-10-13T05:53:40.207Z,1011.29
2022-10-13T05:54:40.245Z,1011.21
2022-10-13T05:55:40.190Z,1011.15
2022-10-13T05:56:40.175Z,1011.05
2022-10-13T05:57:40.162Z,1011.07
2022-10-13T05:58:40.169Z,1011.04
2022-10-13T05:59:40.138Z,1011.05
2022-10-13T06:00:40.178Z,1011.09
2022-10-13T06:01:40.151Z,1011.13
2022-10-13T06:02:40.108Z,1011.19
2022-10-13T06:03:40.099Z,1011.15
2022-10-13T06:04:40.108Z,1011.09
2022-10-13T06:05:40.085Z,1011.07
2022-10-13T06:06:40.056Z,1011.06
2022-10-13T06:07:40.048Z,1011.03
2022-10-13T06:08:40.064Z,1010.96
2022-10-13T06:09:40.031Z,1010.97
2022-10-13T06:10:40.032Z,1010.99
2022-10-13T06:11:40.007Z,1011.01
2022-10-13T06:12:39.988Z,1011.08
2022-10-13T06:13:40.012Z,1011.10
2022-10-13T06:14:39.993Z,1011.16
2022-10-13T06:15:39.993Z,1011.11
2022-10-13T06:16:39.945Z,1011.14
2022-10-13T06:17:39.954Z,1011.05
2022-10-13T06:18:39.930Z,1011.08
2022-10-13T06:19:39.914Z,1011.10
2022-10-13T06:20:39.922Z,1011.08
2022-10-13T06:21:39.915Z,1011.09
2022-10-13T06:22:39.879Z,1011.10
2022-10-13T06:23:39.919Z,1011.05
2022-10-13T06:24:39.876Z,1011.04
2022-10-13T06:25:39.861Z,1011.04
2022-10-13T06:26:39.834Z,1010.99
2022-10-13T06:27:39.824Z,1010.98
2022-10-13T06:28:39.862Z,1010.97
2022-10-13T06:29:39.802Z,1011.03
2022-10-13T06:30:39.787Z,1011.06
2022-10-13T06:31:39.791Z,1011.04
2022-10-13T06:32:39.774Z,1011.02
2022-10-13T06:33:39.760Z,1011.05
2022-10-13T06:34:39.754Z,1011.08
2022-10-13T06:35:39.751Z,1011.07
2022-10-13T06:36:39.732Z,1011.10
2022-10-13T06:37:39.713Z,1011.07
2022-10-13T06:38:39.721Z,1011.11
2022-10-13T06:39:39.693Z,1011.12
2022-10-13T06:40:39.707Z,1011.15
2022-10-13T06:41:39.679Z,1011.18
2022-10-13T06:42:39.659Z,1011.19
2022-10-13T06:43:40.646Z,1011.17
2022-10-13T06:44:39.632Z,1011.22
2022-10-13T06:45:39.627Z,1011.24
2022-10-13T06:46:39.620Z,1011.29
2022-10-13T06:47:39.622Z,1011.25
2022-10-13T06:48:39.593Z,1011.23
2022-10-13T06:49:39.587Z,1011.27
2022-10-13T06:50:42.917Z,1011.30
2022-10-13T06:51:39.590Z,1011.31
2022-10-13T06:52:39.543Z,1011.30
2022-10-13T06:53:39.552Z,1011.25
2022-10-13T06:54:39.532Z,1011.21
2022-10-13T06:55:39.514Z,1011.24
2022-10-13T06:56:39.593Z,1011.30
2022-10-13T06:57:39.506Z,1011.19
2022-10-13T06:58:39.484Z,1011.19
2022-10-13T06:59:39.480Z,1011.13
2022-10-13T07:00:39.496Z,1011.22
2022-10-13T07:01:41.708Z,1011.19
2022-10-13T07:02:39.448Z,1011.16
2022-10-13T07:03:39.424Z,1011.27
2022-10-13T07:04:39.419Z,1011.37
2022-10-13T07:05:39.402Z,1011.36
2022-10-13T07:06:39.420Z,1011.35
2022-10-13T07:07:39.401Z,1011.33
2022-10-13T07:08:39.383Z,1011.29
2022-10-13T07:09:39.359Z,1011.25
2022-10-13T07:10:39.341Z,1011.11
2022-10-13T07:11:39.361Z,1011.05
2022-10-13T07:12:39.347Z,1010.99
2022-10-13T07:13:43.540Z,1011.06
2022-10-13T07:14:43.056Z,1011.08
2022-10-13T07:15:39.291Z,1011.13
2022-10-13T07:16:39.287Z,1011.17
2022-10-13T07:17:39.277Z,1011.09
2022-10-13T07:18:39.268Z,1011.10
2022-10-13T07:19:39.250Z,1011.03
2022-10-13T07:20:39.252Z,1010.98
2022-10-13T07:21:39.222Z,1010.94
2022-10-13T07:22:39.237Z,1010.91
2022-10-13T07:23:39.221Z,1011.00
2022-10-13T07:24:39.306Z,1011.04
2022-10-13T07:25:39.182Z,1011.07
2022-10-13T07:26:39.170Z,1011.11
2022-10-13T07:27:39.153Z,1011.18
2022-10-13T07:28:39.264Z,1011.25
2022-10-13T07:29:39.136Z,1011.18
2022-10-13T07:30:39.158Z,1011.10
2022-10-13T07:31:39.123Z,1011.12
2022-10-13T07:32:39.095Z,1011.18
2022-10-13T07:33:39.090Z,1011.19
2022-10-13T07:34:39.108Z,1011.11
2022-10-13T07:35:39.078Z,1011.11
2022-10-13T07:36:39.049Z,1011.18
2022-10-13T07:37:39.046Z,1011.19
2022-10-13T07:38:39.039Z,1011.18
2022-10-13T07:39:39.019Z,1011.19
2022-10-13T07:40:39.053Z,1011.23
2022-10-13T07:41:39.009Z,1011.20
2022-10-13T07:42:39.021Z,1011.22
2022-10-13T07:43:38.974Z,1011.21
2022-10-13T07:44:39.005Z,1011.12
2022-10-13T07:45:38.963Z,1011.11
2022-10-13T07:46:38.961Z,1011.09
2022-10-13T07:47:38.952Z,1011.12
2022-10-13T07:48:38.921Z,1011.07
2022-10-13T07:49:38.905Z,1011.08
2022-10-13T07:50:38.892Z,1011.01
2022-10-13T07:51:38.908Z,1010.99
2022-10-13T07:52:38.888Z,1011.01
2022-10-13T07:53:38.866Z,1010.99
2022-10-13T07:54:38.856Z,1011.03
2022-10-13T07:55:38.850Z,1011.05
2022-10-13T07:56:38.847Z,1011.01
2022-10-13T07:57:38.833Z,1011.08
2022-10-13T07:58:38.819Z,1011.04
2022-10-13T07:59:38.797Z,1011.08
2022-10-13T08:00:38.901Z,1011.09
2022-10-13T08:01:38.842Z,1011.06
2022-10-13T08:02:38.771Z,1011.03
2022-10-13T08:03:40.258Z,1011.04
2022-10-13T08:04:38.769Z,1011.11
2022-10-13T08:05:38.732Z,1011.13
2022-10-13T08:07:38.712Z,1011.14
2022-10-13T08:08:38.721Z,1011.15
2022-10-13T08:09:38.688Z,1011.15
2022-10-13T08:10:38.692Z,1011.18
2022-10-13T08:11:38.666Z,1011.15
2022-10-13T08:12:38.671Z,1011.13
2022-10-13T08:13:38.646Z,1011.07
2022-10-13T08:14:38.741Z,1011.04
2022-10-13T08:15:38.624Z,1011.05
2022-10-13T08:16:38.636Z,1010.96
2022-10-13T08:17:38.616Z,1011.00
2022-10-13T08:18:38.616Z,1011.04
2022-10-13T08:19:38.604Z,1011.00
2022-10-13T08:20:43.324Z,1011.00
2022-10-13T08:21:57.769Z,1011.08
2022-10-13T08:22:39.549Z,1011.01
2022-10-13T08:23:38.547Z,1010.95
2022-10-13T08:24:38.516Z,1010.99
2022-10-13T08:25:38.507Z,1010.95
2022-10-13T08:26:38.503Z,1011.05
2022-10-13T08:27:50.606Z,1011.05
2022-10-13T08:28:40.919Z,1011.11
2022-10-13T08:29:38.552Z,1011.17
2022-10-13T08:30:38.601Z,1011.11
2022-10-13T08:31:38.635Z,1011.11
2022-10-13T08:32:38.451Z,1011.04
2022-10-13T08:33:38.441Z,1011.09
2022-10-13T08:34:38.417Z,1011.08
2022-10-13T08:35:38.405Z,1011.05
2022-10-13T08:36:38.387Z,1011.03
2022-10-13T08:37:38.371Z,1011.02
2022-10-13T08:38:38.377Z,1011.07
2022-10-13T08:39:38.348Z,1011.02
2022-10-13T08:40:38.361Z,1011.07
2022-10-13T08:41:38.356Z,1011.09
2022-10-13T08:42:38.316Z,1011.07
2022-10-13T08:43:49.099Z,1011.12
2022-10-13T08:45:41.985Z,1011.12
2022-10-13T08:46:38.276Z,1011.10
2022-10-13T08:47:38.283Z,1011.09
2022-10-13T08:48:38.380Z,1011.07
2022-10-13T08:49:40.916Z,1011.05
2022-10-13T08:50:38.226Z,1011.01
2022-10-13T08:51:38.253Z,1011.02
2022-10-13T08:52:38.238Z,1011.07
2022-10-13T08:53:38.194Z,1011.05
2022-10-13T08:54:38.210Z,1011.06
2022-10-13T08:55:38.179Z,1011.13
2022-10-13T08:56:38.173Z,1011.11
2022-10-13T08:57:38.172Z,1011.14
2022-10-13T08:58:38.180Z,1011.07
2022-10-13T08:59:38.143Z,1011.08
2022-10-13T09:00:38.136Z,1011.07
2022-10-13T09:01:38.201Z,1011.05
2022-10-13T09:02:38.119Z,1011.01
2022-10-13T09:03:38.094Z,1010.96
2022-10-13T09:04:38.524Z,1010.92
2022-10-13T09:05:38.068Z,1010.88
2022-10-13T09:06:38.049Z,1010.99
2022-10-13T09:07:38.064Z,1010.90
2022-10-13T09:08:38.064Z,1010.89
2022-10-13T09:09:38.018Z,1010.91
2022-10-13T09:10:38.027Z,1010.92
2022-10-13T09:11:37.992Z,1010.87
2022-10-13T09:12:38.009Z,1010.89
2022-10-13T09:13:37.992Z,1010.87
2022-10-13T09:14:37.966Z,1010.87
2022-10-13T09:15:37.952Z,1010.94
2022-10-13T09:16:37.940Z,1010.85
2022-10-13T09:17:37.952Z,1010.80
2022-10-13T09:18:37.943Z,1010.87
2022-10-13T09:19:37.905Z,1010.88
2022-10-13T09:20:37.926Z,1010.89
2022-10-13T09:21:37.883Z,1010.86
2022-10-13T09:22:37.906Z,1010.88
2022-10-13T09:23:41.028Z,1010.91
2022-10-13T09:24:37.856Z,1010.84
2022-10-13T09:25:37.834Z,1010.89
2022-10-13T09:26:37.868Z,1010.96
2022-10-13T09:27:37.815Z,1011.00
2022-10-13T09:28:37.863Z,1010.95
2022-10-13T09:29:37.799Z,1010.96
2022-10-13T09:30:37.783Z,1010.99
2022-10-13T09:31:37.818Z,1010.98
2022-10-13T09:32:37.775Z,1011.05
2022-10-13T09:33:37.759Z,1011.03
2022-10-13T09:34:37.747Z,1011.03
2022-10-13T09:35:37.729Z,1011.05
2022-10-13T09:36:37.746Z,1011.04
2022-10-13T09:37:37.708Z,1011.00
2022-10-13T09:38:37.721Z,1011.01
2022-10-13T09:39:37.704Z,1011.00
2022-10-13T09:40:37.752Z,1010.95
2022-10-13T09:41:37.661Z,1010.95
2022-10-13T09:42:37.648Z,1010.95
2022-10-13T09:43:37.665Z,1010.97
2022-10-13T09:44:37.651Z,1010.95
2022-10-13T09:45:37.623Z,1010.89
2022-10-13T09:46:37.611Z,1010.97
2022-10-13T09:47:37.589Z,1010.86
2022-10-13T09:48:37.615Z,1010.95
2022-10-13T09:49:37.588Z,1011.05
2022-10-13T09:50:37.561Z,1010.98
2022-10-13T09:51:37.552Z,1010.96
2022-10-13T09:52:37.558Z,1010.95
2022-10-13T09:53:37.524Z,1010.93
2022-10-13T09:54:37.514Z,1011.00
2022-10-13T09:55:37.506Z,1010.94
2022-10-13T09:56:37.494Z,1010.91
2022-10-13T09:57:37.491Z,1010.96
2022-10-13T09:58:37.518Z,1010.93
2022-10-13T09:59:37.456Z,1010.92
2022-10-13T10:00:37.458Z,1010.94
2022-10-13T10:01:37.464Z,1010.87
2022-10-13T10:02:37.429Z,1010.86
2022-10-13T10:03:37.430Z,1010.88
2022-10-13T10:04:37.413Z,1010.92
2022-10-13T10:05:37.400Z,1010.93
2022-10-13T10:06:37.380Z,1010.92
2022-10-13T10:07:37.364Z,1010.91
2022-10-13T10:09:01.574Z,1010.99
2022-10-13T10:09:38.361Z,1010.96
2022-10-13T10:10:37.362Z,1010.92
2022-10-13T10:11:37.337Z,1010.94
2022-10-13T10:12:37.313Z,1010.96
2022-10-13T10:13:37.303Z,1010.86
2022-10-13T10:14:37.297Z,1010.83
2022-10-13T10:15:37.292Z,1010.84
2022-10-13T10:16:37.282Z,1010.80
2022-10-13T10:17:37.260Z,1010.79
2022-10-13T10:18:37.245Z,1010.77
2022-10-13T10:19:37.250Z,1010.80
2022-10-13T10:20:37.243Z,1010.81
2022-10-13T10:21:37.227Z,1010.78
2022-10-13T10:22:37.207Z,1010.77
2022-10-13T10:23:37.197Z,1010.75
2022-10-13T10:24:37.205Z,1010.73
2022-10-13T10:25:37.169Z,1010.75
2022-10-13T10:26:37.155Z,1010.70
2022-10-13T10:27:40.003Z,1010.69
2022-10-13T10:28:38.254Z,1010.67
2022-10-13T10:29:37.129Z,1010.68
2022-10-13T10:30:37.112Z,1010.71
2022-10-13T10:31:37.102Z,1010.70
2022-10-13T10:32:37.092Z,1010.68
2022-10-13T10:33:37.088Z,1010.70
2022-10-13T10:34:37.079Z,1010.67
2022-10-13T10:35:37.089Z,1010.68
2022-10-13T10:36:37.048Z,1010.63
2022-10-13T10:37:37.035Z,1010.61
2022-10-13T10:38:37.043Z,1010.58
2022-10-13T10:39:37.015Z,1010.54
2022-10-13T10:40:37.039Z,1010.54
2022-10-13T10:41:36.989Z,1010.51
2022-10-13T10:42:36.995Z,1010.52
2022-10-13T10:43:36.964Z,1010.59
2022-10-13T10:44:36.995Z,1010.58
2022-10-13T10:45:36.982Z,1010.60
2022-10-13T10:46:36.958Z,1010.58
2022-10-13T10:47:36.921Z,1010.51
2022-10-13T10:48:36.912Z,1010.54
2022-10-13T10:49:36.922Z,1010.49
2022-10-13T10:50:36.902Z,1010.50
2022-10-13T10:51:36.875Z,1010.47
2022-10-13T10:52:36.890Z,1010.47
2022-10-13T10:53:36.853Z,1010.40
2022-10-13T10:54:36.850Z,1010.43
2022-10-13T10:55:36.868Z,1010.41
2022-10-13T10:56:36.858Z,1010.41
2022-10-13T10:57:36.811Z,1010.40
2022-10-13T10:58:36.823Z,1010.39
2022-10-13T10:59:36.792Z,1010.43
2022-10-13T11:00:36.790Z,1010.48
2022-10-13T11:01:36.819Z,1010.48
2022-10-13T11:02:36.757Z,1010.39
2022-10-13T11:03:36.743Z,1010.40
2022-10-13T11:04:36.736Z,1010.38
2022-10-13T11:05:36.747Z,1010.35
2022-10-13T11:06:36.720Z,1010.30
2022-10-13T11:07:36.730Z,1010.34
2022-10-13T11:08:36.690Z,1010.30
2022-10-13T11:09:36.680Z,1010.23
2022-10-13T11:10:36.668Z,1010.23
2022-10-13T11:11:37.924Z,1010.20
2022-10-13T11:12:36.698Z,1010.17
2022-10-13T11:13:36.631Z,1010.21
2022-10-13T11:14:36.630Z,1010.24
2022-10-13T11:15:36.610Z,1010.34
2022-10-13T11:16:36.604Z,1010.21
2022-10-13T11:17:36.632Z,1010.18
2022-10-13T11:18:36.610Z,1010.21
2022-10-13T11:19:36.589Z,1010.19
2022-10-13T11:20:36.558Z,1010.16
2022-10-13T11:21:36.545Z,1010.23
2022-10-13T11:22:36.603Z,1010.21
2022-10-13T11:23:36.524Z,1010.11
2022-10-13T11:24:36.518Z,1010.13
2022-10-13T11:25:36.527Z,1010.13
2022-10-13T11:26:36.501Z,1010.06
2022-10-13T11:27:36.504Z,1010.09
2022-10-13T11:28:36.538Z,1010.14
2022-10-13T11:29:36.463Z,1010.11
2022-10-13T11:30:36.476Z,1010.12
2022-10-13T11:31:36.438Z,1010.07
2022-10-13T11:32:36.440Z,1010.05
2022-10-13T11:33:36.424Z,1009.97
2022-10-13T11:34:36.404Z,1010.10
2022-10-13T11:35:36.394Z,1010.06
2022-10-13T11:36:36.387Z,1010.01
2022-10-13T11:37:36.367Z,1009.99
2022-10-13T11:38:36.383Z,1010.00
2022-10-13T11:39:36.360Z,1009.99
2022-10-13T11:40:36.356Z,1009.97
2022-10-13T11:41:36.324Z,1010.00
2022-10-13T11:42:36.335Z,1010.03
2022-10-13T11:43:36.319Z,1009.94
2022-10-13T11:44:36.333Z,1009.91
2022-10-13T11:45:36.280Z,1009.89
2022-10-13T11:46:36.273Z,1009.92
2022-10-13T11:47:36.283Z,1009.88
2022-10-13T11:48:36.261Z,1009.94
2022-10-13T11:49:36.238Z,1009.95
2022-10-13T11:50:36.237Z,1009.98
2022-10-13T11:51:36.215Z,1009.96
2022-10-13T11:52:36.205Z,1009.95
2022-10-13T11:53:36.236Z,1009.94
2022-10-13T11:54:36.187Z,1009.88
2022-10-13T11:55:36.187Z,1009.89
2022-10-13T11:56:39.547Z,1009.90
2022-10-13T11:57:36.151Z,1009.83
2022-10-13T11:58:36.137Z,1009.87
2022-10-13T11:59:36.145Z,1009.89
2022-10-13T12:00:36.166Z,1009.81
2022-10-13T12:01:36.097Z,1009.80
2022-10-13T12:02:36.135Z,1009.85
2022-10-13T12:03:36.093Z,1009.87
2022-10-13T12:04:36.081Z,1009.90
2022-10-13T12:05:36.072Z,1009.79
2022-10-13T12:06:36.049Z,1009.82
2022-10-13T12:07:36.034Z,1009.75